International Virtual Aviation Organisation

Eastern Europe and Northern Asia MCD

 
UACP 131100Z 29003MPS CAVOK 13/M02 Q1038 R23/0/0060 NOSIG RMK QFE766/1021
QNH:(hPa/inHg/mmHg)1038 / 30.65 / 779
QFE:(hPa/inHg/mmHg)1021 / 30.15 / 766
Temperature13
Dew Point-2
Visibility> 10000
WeatherCAVOK
Cloud Cover
Transition Height10000 m./33300 ft.
Transition LevelFL340
SQUAWK